Time;durP1;ratioP1;P1;durP2;ratioP2;P2;SDS_P1;SDS_P2;PMS_P1;PMS_P2;Temp;Humidity;BMP_temperature;BMP_pressure;BME280_temperature;BME280_humidity;BME280_pressure;Samples;Min_cycle;Max_cycle;Signal;HPM_P1;HPM_P2
2021/01/30 00:01:14;;;;;;;;;;;;;;;10.60;50.62;100336.28;4986298;28;19936;-89
2021/01/30 00:03:39;;;;;;;;;;;;;;;10.38;50.55;100331.19;4986301;28;19918;-89
2021/01/30 00:06:08;;;;;;;;;;;;;;;10.66;50.81;100331.47;4985872;28;19960;-89
2021/01/30 00:08:34;;;;;;;;;;;;;;;10.44;51.14;100332.69;4986552;28;19925;-89
2021/01/30 00:10:59;;;;;;;;;;;;;;;10.52;49.55;100341.22;4989339;28;19922;-89
2021/01/30 00:13:24;;;;;;;;;;;;;;;10.18;50.37;100337.66;4989606;28;19918;-89
2021/01/30 00:15:49;;;;;;;;;;;;;;;10.62;50.45;100338.91;4989927;28;19953;-88
2021/01/30 00:18:15;;;;;;;;;;;;;;;10.48;49.85;100344.19;4990073;28;19909;-89
2021/01/30 00:20:40;;;;;;;;;;;;;;;10.37;50.04;100337.56;4990402;28;19957;-88
2021/01/30 00:23:06;;;;;;;;;;;;;;;10.52;50.13;100352.06;4989294;28;19918;-88
2021/01/30 00:25:32;;;;;;;;;;;;;;;9.85;50.68;100351.16;4990359;28;19906;-88
2021/01/30 00:27:58;;;;;;;;;;;;;;;9.37;51.85;100361.69;4990553;28;19918;-89
2021/01/30 00:30:24;;;;;;;;;;;;;;;10.08;50.67;100358.03;4989669;28;19937;-88
2021/01/30 00:32:50;;;;;;;;;;;;;;;9.81;50.67;100353.13;4989182;28;19961;-88
2021/01/30 00:35:16;;;;;;;;;;;;;;;9.42;52.20;100356.06;4990149;28;19909;-88
2021/01/30 00:37:41;;;;;;;;;;;;;;;9.97;50.13;100350.50;4989669;28;19949;-88
2021/01/30 00:40:07;;;;;;;;;;;;;;;9.30;51.70;100350.34;4989357;28;19925;-88
2021/01/30 00:42:32;;;;;;;;;;;;;;;8.60;52.28;100357.34;4989554;28;19961;-89
2021/01/30 00:44:58;;;;;;;;;;;;;;;9.11;50.95;100360.31;4989900;28;19918;-88
2021/01/30 00:47:23;;;;;;;;;;;;;;;8.96;51.79;100356.53;4989014;28;19933;-88
2021/01/30 00:49:49;;;;;;;;;;;;;;;8.40;52.24;100364.50;4988591;28;20426;-88
2021/01/30 00:52:18;;;;;;;;;;;;;;;7.59;53.04;100355.56;4988957;28;19945;-88
2021/01/30 00:54:43;;;;;;;;;;;;;;;8.84;51.41;100358.00;5006163;28;19922;-89
2021/01/30 00:57:09;;;;;;;;;;;;;;;8.29;51.70;100351.53;4987988;28;19925;-88
2021/01/30 00:59:34;;;;;;;;;;;;;;;8.58;53.00;100356.56;4988609;28;19918;-88
2021/01/30 01:01:59;;;;;;;;;;;;;;;8.66;51.52;100360.63;4988357;28;19964;-88
2021/01/30 01:04:25;;;;;;;;;;;;;;;8.36;52.06;100365.59;4989043;28;19930;-88
2021/01/30 01:06:50;;;;;;;;;;;;;;;8.77;51.40;100372.72;4988670;28;19929;-89
2021/01/30 01:09:16;;;;;;;;;;;;;;;8.92;50.79;100363.88;5006232;28;19929;-88
2021/01/30 01:11:43;;;;;;;;;;;;;;;9.16;50.94;100360.94;4989326;28;19934;-88
2021/01/30 01:14:08;;;;;;;;;;;;;;;8.97;50.85;100361.00;4988446;28;19918;-88
2021/01/30 01:16:34;;;;;;;;;;;;;;;9.11;50.97;100363.88;4988995;28;19925;-88
2021/01/30 01:18:59;;;;;;;;;;;;;;;8.26;52.46;100367.84;4989575;28;19928;-88
2021/01/30 01:21:25;;;;;;;;;;;;;;;8.22;52.75;100365.38;4988513;28;19953;-88
2021/01/30 01:23:50;;;;;;;;;;;;;;;8.00;53.80;100374.41;4988728;28;20409;-88
2021/01/30 01:26:17;;;;;;;;;;;;;;;8.09;53.67;100381.19;4987291;28;19914;-87
2021/01/30 01:28:42;;;;;;;;;;;;;;;7.81;54.33;100369.84;4987933;28;20426;-88
2021/01/30 01:31:08;;;;;;;;;;;;;;;8.00;53.79;100379.78;4987670;28;19918;-88
2021/01/30 01:33:33;;;;;;;;;;;;;;;7.35;54.62;100384.38;4988496;28;19922;-88
2021/01/30 01:35:58;;;;;;;;;;;;;;;8.27;52.54;100375.00;5005984;28;19965;-88
2021/01/30 01:38:24;;;;;;;;;;;;;;;7.48;54.63;100385.63;4988545;28;19926;-89
2021/01/30 01:40:49;;;;;;;;;;;;;;;8.32;52.59;100389.13;4987900;28;19922;-89
2021/01/30 01:43:16;;;;;;;;;;;;;;;8.22;53.47;100386.94;4987736;28;19925;-89
2021/01/30 01:45:42;;;;;;;;;;;;;;;7.65;54.39;100394.81;4988291;28;20287;-89
2021/01/30 01:48:18;;;;;;;;;;;;;;;7.62;55.22;100390.41;4988863;28;19921;-88
2021/01/30 01:50:45;;;;;;;;;;;;;;;6.91;57.47;100401.41;4987877;28;19918;-89
2021/01/30 01:53:13;;;;;;;;;;;;;;;7.40;53.74;100404.78;4988479;28;20009;-90
2021/01/30 01:55:42;;;;;;;;;;;;;;;7.22;53.81;100406.41;4987652;28;19976;-87
2021/01/30 01:58:08;;;;;;;;;;;;;;;7.47;52.96;100413.47;4986287;28;19928;-89
2021/01/30 02:00:33;;;;;;;;;;;;;;;7.13;52.20;100416.69;4987020;28;19922;-88
2021/01/30 02:02:58;;;;;;;;;;;;;;;7.81;51.51;100409.38;4986354;28;19936;-88
2021/01/30 02:05:32;;;;;;;;;;;;;;;6.68;54.20;100415.75;4985929;28;20016;-88
2021/01/30 02:08:04;;;;;;;;;;;;;;;7.38;51.86;100409.38;4985943;28;20371;-89
2021/01/30 02:10:35;;;;;;;;;;;;;;;7.91;52.07;100412.50;5003793;28;19921;-88
2021/01/30 02:13:06;;;;;;;;;;;;;;;6.73;54.13;100406.56;5003465;28;19943;-89
2021/01/30 02:15:32;;;;;;;;;;;;;;;6.45;55.61;100409.44;4985203;28;20294;-88
2021/01/30 02:18:03;;;;;;;;;;;;;;;6.49;55.20;100415.56;5003346;28;19924;-88
2021/01/30 02:20:40;;;;;;;;;;;;;;;7.07;54.57;100416.00;4986237;28;19968;-88
2021/01/30 02:23:09;;;;;;;;;;;;;;;6.05;55.51;100420.75;4986327;28;19921;-88
2021/01/30 02:25:53;;;;;;;;;;;;;;;5.82;56.20;100422.41;4986064;28;19957;-88
2021/01/30 02:28:21;;;;;;;;;;;;;;;6.03;56.10;100424.38;5002848;28;19924;-88
2021/01/30 02:31:05;;;;;;;;;;;;;;;6.50;54.52;100428.06;4985808;28;19917;-88
2021/01/30 02:33:42;;;;;;;;;;;;;;;5.74;54.75;100416.44;4984919;28;19949;-88
2021/01/30 02:36:15;;;;;;;;;;;;;;;5.71;56.37;100420.09;4985748;28;19918;-88
2021/01/30 02:38:48;;;;;;;;;;;;;;;6.56;54.09;100409.03;4987198;28;19932;-88
2021/01/30 02:41:23;;;;;;;;;;;;;;;5.72;55.46;100418.28;4982809;28;19917;-88
2021/01/30 02:43:49;;;;;;;;;;;;;;;4.68;58.50;100418.03;4986179;28;19917;-88
2021/01/30 02:46:19;;;;;;;;;;;;;;;4.77;57.71;100421.34;4985066;28;19976;-88
2021/01/30 02:48:46;;;;;;;;;;;;;;;5.36;56.41;100434.69;4984631;28;19925;-88
2021/01/30 02:51:13;;;;;;;;;;;;;;;5.87;56.12;100423.13;4984821;28;19917;-88
2021/01/30 02:53:43;;;;;;;;;;;;;;;5.45;56.50;100420.97;4984332;28;19989;-87
2021/01/30 02:56:08;;;;;;;;;;;;;;;5.94;55.74;100423.81;4983336;28;20009;-88
2021/01/30 02:58:49;;;;;;;;;;;;;;;5.89;54.77;100423.97;4984446;28;19918;-88
2021/01/30 03:01:14;;;;;;;;;;;;;;;5.80;55.61;100422.47;4983863;28;20363;-88
2021/01/30 03:03:40;;;;;;;;;;;;;;;6.14;55.05;100426.66;4984402;28;19925;-89
2021/01/30 03:06:09;;;;;;;;;;;;;;;5.57;55.41;100435.78;4984460;28;19914;-89
2021/01/30 03:08:38;;;;;;;;;;;;;;;6.19;55.17;100435.44;4984669;28;19984;-89
2021/01/30 03:11:20;;;;;;;;;;;;;;;5.89;55.62;100440.06;4985191;28;19914;-88
2021/01/30 03:13:52;;;;;;;;;;;;;;;5.01;56.59;100444.75;4984894;28;19918;-89
2021/01/30 03:16:19;;;;;;;;;;;;;;;5.21;55.51;100439.66;4985378;28;19918;-89
2021/01/30 03:18:48;;;;;;;;;;;;;;;6.64;52.60;100439.16;4985914;28;19917;-88
2021/01/30 03:21:14;;;;;;;;;;;;;;;5.38;55.68;100446.28;4984615;28;19981;-89
2021/01/30 03:23:40;;;;;;;;;;;;;;;5.95;54.21;100439.84;4984501;28;19922;-89
2021/01/30 03:26:08;;;;;;;;;;;;;;;5.04;55.91;100433.91;4983793;28;19918;-88
2021/01/30 03:28:33;;;;;;;;;;;;;;;5.17;54.87;100431.75;4985207;28;19921;-88
2021/01/30 03:31:00;;;;;;;;;;;;;;;5.45;54.63;100431.69;4984537;28;19971;-88
2021/01/30 03:33:25;;;;;;;;;;;;;;;5.35;54.96;100432.97;4983857;28;19925;-88
2021/01/30 03:35:51;;;;;;;;;;;;;;;4.70;57.29;100432.28;4984227;28;19918;-88
2021/01/30 03:38:16;;;;;;;;;;;;;;;4.24;57.36;100435.38;4984657;28;20001;-88
2021/01/30 03:40:43;;;;;;;;;;;;;;;4.98;55.60;100443.03;4984085;28;19918;-89
2021/01/30 03:43:08;;;;;;;;;;;;;;;5.48;55.16;100442.31;4983548;28;19918;-87
2021/01/30 03:45:39;;;;;;;;;;;;;;;5.42;55.79;100437.16;4983390;28;19918;-89
2021/01/30 03:48:05;;;;;;;;;;;;;;;5.16;55.71;100436.22;4936270;28;1313162;-88
2021/01/30 03:50:30;;;;;;;;;;;;;;;5.89;54.53;100432.03;4983343;28;19926;-89
2021/01/30 03:52:56;;;;;;;;;;;;;;;5.52;55.62;100430.56;4985021;28;19945;-88
2021/01/30 03:55:22;;;;;;;;;;;;;;;6.20;54.04;100417.50;4984034;28;19918;-89
2021/01/30 03:57:48;;;;;;;;;;;;;;;6.14;53.83;100423.13;4982665;28;19898;-89
2021/01/30 04:00:15;;;;;;;;;;;;;;;5.06;56.80;100421.38;4981890;28;19973;-89
2021/01/30 04:02:40;;;;;;;;;;;;;;;6.00;54.79;100411.06;4981116;28;19918;-87
2021/01/30 04:05:07;;;;;;;;;;;;;;;5.57;55.12;100415.22;4980204;28;19973;-89
2021/01/30 04:07:32;;;;;;;;;;;;;;;5.61;54.62;100416.84;4981747;28;19919;-89
2021/01/30 04:09:57;;;;;;;;;;;;;;;5.43;55.43;100417.47;4981075;28;19922;-88
2021/01/30 04:12:22;;;;;;;;;;;;;;;5.63;54.53;100406.06;4981543;28;19919;-87
2021/01/30 04:14:48;;;;;;;;;;;;;;;5.86;53.71;100405.28;4981120;28;19918;-89
2021/01/30 04:17:13;;;;;;;;;;;;;;;5.70;54.54;100404.06;4980837;28;20459;-88
2021/01/30 04:19:38;;;;;;;;;;;;;;;5.36;55.80;100411.44;4981375;28;20283;-88
2021/01/30 04:22:05;;;;;;;;;;;;;;;6.64;51.64;100403.34;4980292;28;19922;-88
2021/01/30 04:24:30;;;;;;;;;;;;;;;5.98;54.91;100404.88;4981031;28;19924;-89
2021/01/30 04:26:55;;;;;;;;;;;;;;;6.15;53.34;100406.94;4981364;28;20004;-89
2021/01/30 04:29:20;;;;;;;;;;;;;;;6.77;52.69;100404.63;4981396;28;19918;-88
2021/01/30 04:31:45;;;;;;;;;;;;;;;6.13;53.37;100413.28;4981108;28;19918;-89
2021/01/30 04:34:11;;;;;;;;;;;;;;;6.20;53.92;100410.34;4980499;28;19918;-88
2021/01/30 04:36:36;;;;;;;;;;;;;;;5.54;55.18;100407.28;4981711;28;20021;-89
2021/01/30 04:39:02;;;;;;;;;;;;;;;5.36;55.36;100406.09;4981130;28;19926;-89
2021/01/30 04:41:27;;;;;;;;;;;;;;;6.06;53.09;100399.22;4981297;28;19915;-89
2021/01/30 04:44:01;;;;;;;;;;;;;;;5.35;56.00;100408.81;4981409;28;19918;-88
2021/01/30 04:46:31;;;;;;;;;;;;;;;5.08;55.56;100398.06;4983571;28;20006;-89
2021/01/30 04:49:08;;;;;;;;;;;;;;;5.33;55.58;100403.50;4984872;28;19929;-88
2021/01/30 04:51:39;;;;;;;;;;;;;;;5.91;54.21;100386.31;4985128;28;19944;-89
2021/01/30 04:54:10;;;;;;;;;;;;;;;5.71;54.70;100392.38;4984665;28;19922;-89
2021/01/30 04:56:57;;;;;;;;;;;;;;;6.28;53.51;100393.94;4986007;28;19925;-88
2021/01/30 04:59:28;;;;;;;;;;;;;;;5.99;52.34;100387.84;4988292;28;19924;-88
2021/01/30 05:01:57;;;;;;;;;;;;;;;5.43;54.82;100390.66;4988168;28;19947;-89
2021/01/30 05:04:22;;;;;;;;;;;;;;;6.41;52.32;100386.28;4988405;28;19918;-89
2021/01/30 05:06:51;;;;;;;;;;;;;;;5.83;52.70;100384.78;4988388;28;19973;-89
2021/01/30 05:09:23;;;;;;;;;;;;;;;5.95;52.89;100386.16;4989092;28;20340;-89
2021/01/30 05:11:53;;;;;;;;;;;;;;;5.18;55.56;100388.78;4984331;28;20419;-89
2021/01/30 05:14:22;;;;;;;;;;;;;;;6.25;53.08;100379.75;5004697;28;19922;-88
2021/01/30 05:16:55;;;;;;;;;;;;;;;5.78;53.05;100383.19;4987278;28;19965;-89
2021/01/30 05:19:21;;;;;;;;;;;;;;;6.38;53.33;100379.22;4987339;28;20303;-88
2021/01/30 05:21:50;;;;;;;;;;;;;;;6.28;52.28;100376.94;4987964;28;19925;-89
2021/01/30 05:24:16;;;;;;;;;;;;;;;5.34;54.04;100375.72;4987800;28;19937;-88
2021/01/30 05:27:00;;;;;;;;;;;;;;;4.60;57.10;100384.34;4986410;28;20016;-89
2021/01/30 05:29:31;;;;;;;;;;;;;;;5.36;55.72;100375.69;4987938;28;20031;-88
2021/01/30 05:32:16;;;;;;;;;;;;;;;4.84;55.70;100376.44;4988027;28;20367;-89
2021/01/30 05:34:53;;;;;;;;;;;;;;;5.76;53.89;100383.25;4988771;28;20009;-89
2021/01/30 05:37:22;;;;;;;;;;;;;;;5.35;54.05;100373.94;4988641;28;20014;-89
2021/01/30 05:39:59;;;;;;;;;;;;;;;4.88;55.66;100388.84;4988388;28;19976;-89
2021/01/30 05:42:40;;;;;;;;;;;;;;;6.07;52.94;100374.13;4987646;28;19922;-89
2021/01/30 05:45:08;;;;;;;;;;;;;;;6.24;52.51;100378.00;4988216;28;19918;-89
2021/01/30 05:47:34;;;;;;;;;;;;;;;5.74;53.83;100376.19;4988052;28;19925;-88
2021/01/30 05:50:02;;;;;;;;;;;;;;;4.31;57.22;100376.31;4989308;28;20367;-88
2021/01/30 05:52:32;;;;;;;;;;;;;;;5.19;54.68;100376.25;4988499;28;19925;-87
2021/01/30 05:54:57;;;;;;;;;;;;;;;5.07;54.80;100370.38;4988662;28;19918;-88
2021/01/30 05:57:23;;;;;;;;;;;;;;;5.25;55.10;100376.91;4989020;28;19972;-87
2021/01/30 05:59:50;;;;;;;;;;;;;;;4.65;55.42;100376.16;4989963;28;20367;-88
2021/01/30 06:02:20;;;;;;;;;;;;;;;4.78;56.92;100379.34;4988388;28;19918;-88
2021/01/30 06:04:47;;;;;;;;;;;;;;;5.08;54.99;100374.78;4988609;28;19972;-89
2021/01/30 06:07:35;;;;;;;;;;;;;;;5.39;54.88;100367.53;4987231;28;19926;-88
2021/01/30 06:10:19;;;;;;;;;;;;;;;5.20;55.43;100383.38;4985497;28;19925;-88
2021/01/30 06:12:45;;;;;;;;;;;;;;;4.97;56.60;100377.81;4987578;28;19922;-88
2021/01/30 06:15:15;;;;;;;;;;;;;;;5.08;55.35;100371.25;5005977;28;19968;-84
2021/01/30 06:17:42;;;;;;;;;;;;;;;4.74;56.72;100375.88;4986996;28;20410;-86
2021/01/30 06:20:23;;;;;;;;;;;;;;;4.54;56.71;100372.94;4986752;28;19917;-86
2021/01/30 06:23:09;;;;;;;;;;;;;;;5.51;54.86;100364.44;4986229;28;20298;-87
2021/01/30 06:25:36;;;;;;;;;;;;;;;4.92;55.52;100373.53;4985993;28;20401;-85
2021/01/30 06:28:05;;;;;;;;;;;;;;;5.03;55.33;100371.41;4986430;28;20004;-88
2021/01/30 06:30:33;;;;;;;;;;;;;;;5.17;55.33;100378.97;4986394;28;19922;-85
2021/01/30 06:33:01;;;;;;;;;;;;;;;5.27;54.59;100376.91;4987036;28;19925;-85
2021/01/30 06:35:32;;;;;;;;;;;;;;;5.58;55.10;100370.47;5004445;28;19906;-87
2021/01/30 06:38:00;;;;;;;;;;;;;;;5.32;55.26;100373.09;4986667;28;19926;-87
2021/01/30 06:40:25;;;;;;;;;;;;;;;4.64;55.89;100377.09;5004645;28;19918;-87
2021/01/30 06:42:52;;;;;;;;;;;;;;;4.35;57.39;100378.84;4985953;28;19918;-86
2021/01/30 06:45:27;;;;;;;;;;;;;;;4.43;56.82;100375.94;5003251;28;19981;-88
2021/01/30 06:47:53;;;;;;;;;;;;;;;4.28;56.82;100371.03;5003421;28;20279;-87
2021/01/30 06:50:32;;;;;;;;;;;;;;;4.69;56.21;100377.81;5003933;28;19917;-87
2021/01/30 06:53:18;;;;;;;;;;;;;;;4.94;55.26;100383.28;5003176;28;19918;-84
2021/01/30 06:55:43;;;;;;;;;;;;;;;5.03;55.35;100367.81;5003800;28;20360;-87
2021/01/30 06:58:11;;;;;;;;;;;;;;;5.13;55.41;100362.13;4986230;28;19929;-85
2021/01/30 07:00:37;;;;;;;;;;;;;;;4.68;56.09;100359.09;4986991;28;19918;-87
2021/01/30 07:03:14;;;;;;;;;;;;;;;5.28;54.42;100355.38;4986213;28;19972;-87
2021/01/30 07:05:49;;;;;;;;;;;;;;;4.51;55.90;100362.31;4986386;28;19925;-86
2021/01/30 07:08:26;;;;;;;;;;;;;;;4.43;56.15;100357.19;5002705;28;20006;-86
2021/01/30 07:11:13;;;;;;;;;;;;;;;4.53;56.58;100361.34;5003949;28;19921;-88
2021/01/30 07:13:45;;;;;;;;;;;;;;;5.28;53.99;100352.69;4986577;28;19918;-87
2021/01/30 07:16:28;;;;;;;;;;;;;;;4.06;56.96;100366.28;4986595;28;19917;-90
2021/01/30 07:19:02;;;;;;;;;;;;;;;4.53;55.58;100365.81;4986196;28;20256;-88
2021/01/30 07:21:32;;;;;;;;;;;;;;;5.00;55.42;100365.25;5003574;28;20390;-89
2021/01/30 07:24:15;;;;;;;;;;;;;;;4.06;57.11;100358.25;4986974;28;19964;-88
2021/01/30 07:26:44;;;;;;;;;;;;;;;4.64;56.01;100362.81;4986285;28;19937;-88
2021/01/30 07:29:17;;;;;;;;;;;;;;;4.86;55.45;100363.91;5003769;28;19918;-89
2021/01/30 07:32:13;;;;;;;;;;;;;;;4.68;55.39;100360.00;4986660;28;19930;-88
2021/01/30 07:45:35;;;;;;;;;;;;;;;3.97;57.73;100345.13;5191696;22;19926;-87
2021/01/30 07:48:03;;;;;;;;;;;;;;;4.85;56.10;100346.06;5023811;28;19922;-85
2021/01/30 07:50:30;;;;;;;;;;;;;;;4.36;57.36;100348.47;5021416;28;19957;-85
2021/01/30 07:53:01;;;;;;;;;;;;;;;6.07;53.52;100351.75;5005864;28;19922;-85
2021/01/30 07:55:27;;;;;;;;;;;;;;;5.35;54.11;100353.34;5006910;28;19924;-89
2021/01/30 07:58:11;;;;;;;;;;;;;;;4.99;55.65;100355.47;5022396;28;19917;-87
2021/01/30 08:00:54;;;;;;;;;;;;;;;4.44;57.01;100350.91;5022459;28;19921;-85
2021/01/30 08:03:34;;;;;;;;;;;;;;;4.24;57.79;100365.78;5005609;28;20020;-88
2021/01/30 08:06:18;;;;;;;;;;;;;;;3.76;58.82;100370.69;5028571;28;19945;-89
2021/01/30 08:08:49;;;;;;;;;;;;;;;5.03;55.47;100363.34;5011459;28;19925;-86
2021/01/30 08:11:30;;;;;;;;;;;;;;;4.73;56.00;100362.53;5005467;28;19944;-86
2021/01/30 08:14:08;;;;;;;;;;;;;;;5.14;55.02;100347.78;5004993;28;20032;-87
2021/01/30 08:16:52;;;;;;;;;;;;;;;4.41;56.70;100348.31;5022173;28;19929;-87
2021/01/30 08:19:32;;;;;;;;;;;;;;;4.29;56.92;100343.31;4998219;28;20021;-88
2021/01/30 08:22:00;;;;;;;;;;;;;;;4.35;56.20;100352.06;4981750;28;20041;-86
2021/01/30 08:24:45;;;;;;;;;;;;;;;4.67;55.80;100352.00;4981438;28;19918;-87
2021/01/30 08:27:28;;;;;;;;;;;;;;;5.48;53.29;100353.78;4982254;28;19918;-83
2021/01/30 08:30:08;;;;;;;;;;;;;;;5.25;54.55;100349.22;4981546;28;19925;-88
2021/01/30 08:33:03;;;;;;;;;;;;;;;4.64;55.40;100341.38;5003233;28;19964;-87
2021/01/30 08:35:28;;;;;;;;;;;;;;;4.72;54.68;100332.16;4993882;28;19933;-87
2021/01/30 08:37:58;;;;;;;;;;;;;;;4.23;57.04;100352.44;5001510;28;19918;-87
2021/01/30 08:40:56;;;;;;;;;;;;;;;4.44;56.75;100335.72;4986086;28;19917;-87
2021/01/30 08:43:35;;;;;;;;;;;;;;;4.46;56.20;100335.66;4980625;28;19925;-87
2021/01/30 08:46:18;;;;;;;;;;;;;;;5.05;55.21;100339.16;5003454;28;19922;-89
2021/01/30 08:48:45;;;;;;;;;;;;;;;5.45;55.29;100330.66;5003345;28;20283;-87
2021/01/30 08:51:20;;;;;;;;;;;;;;;5.72;53.79;100327.03;4986168;28;19924;-87
2021/01/30 08:53:45;;;;;;;;;;;;;;;5.47;53.88;100331.47;4986408;28;19922;-88
2021/01/30 08:56:31;;;;;;;;;;;;;;;5.02;54.88;100321.38;5002543;28;20295;-88
2021/01/30 08:58:56;;;;;;;;;;;;;;;6.07;53.11;100317.75;4985861;28;19902;-87
2021/01/30 09:01:21;;;;;;;;;;;;;;;5.73;53.67;100312.69;5002693;28;20260;-89
2021/01/30 09:03:49;;;;;;;;;;;;;;;5.06;55.17;100322.16;5000755;28;19921;-88
2021/01/30 09:06:34;;;;;;;;;;;;;;;4.46;56.63;100324.09;5001031;28;19918;-88
2021/01/30 09:09:19;;;;;;;;;;;;;;;4.23;57.04;100315.81;5000588;28;19928;-89
2021/01/30 09:11:53;;;;;;;;;;;;;;;4.75;55.12;100318.66;5003804;28;19953;-87
2021/01/30 09:14:19;;;;;;;;;;;;;;;5.48;53.35;100330.56;5000244;28;20329;-87
2021/01/30 09:16:58;;;;;;;;;;;;;;;5.51;53.74;100324.22;5003589;28;19917;-87
2021/01/30 09:19:32;;;;;;;;;;;;;;;6.37;51.57;100325.53;5003052;28;19909;-87
2021/01/30 09:21:57;;;;;;;;;;;;;;;6.63;51.52;100319.16;5002995;28;19980;-84
2021/01/30 09:24:29;;;;;;;;;;;;;;;4.66;55.05;100326.13;5003342;28;19952;-83
2021/01/30 09:26:54;;;;;;;;;;;;;;;5.79;53.66;100317.84;5019165;28;20359;-85
2021/01/30 09:29:23;;;;;;;;;;;;;;;5.66;52.33;100330.81;5019730;28;19971;-87
2021/01/30 09:31:58;;;;;;;;;;;;;;;5.55;53.20;100335.69;5020689;28;20021;-84
2021/01/30 09:34:27;;;;;;;;;;;;;;;5.75;53.30;100322.47;5013095;28;20374;-82
2021/01/30 09:36:53;;;;;;;;;;;;;;;5.32;54.68;100337.38;5019107;28;19993;-84
2021/01/30 09:39:23;;;;;;;;;;;;;;;5.45;53.67;100329.75;5002204;28;20390;-83
2021/01/30 09:41:48;;;;;;;;;;;;;;;6.04;51.89;100320.53;5001904;28;20394;-84
2021/01/30 09:44:16;;;;;;;;;;;;;;;5.09;54.25;100322.94;5018987;28;19925;-85
2021/01/30 09:46:42;;;;;;;;;;;;;;;5.77;52.56;100330.44;5002478;28;19927;-88
2021/01/30 09:49:10;;;;;;;;;;;;;;;5.47;53.37;100333.28;5002694;28;20008;-85
2021/01/30 09:51:39;;;;;;;;;;;;;;;5.71;51.90;100320.81;5019308;28;19924;-85
2021/01/30 09:54:04;;;;;;;;;;;;;;;6.38;50.72;100322.78;5002187;28;20008;-85
2021/01/30 09:56:33;;;;;;;;;;;;;;;5.37;53.30;100321.97;5000568;28;19956;-82
2021/01/30 09:58:59;;;;;;;;;;;;;;;5.64;52.70;100316.59;5017733;28;19963;-82
2021/01/30 10:01:29;;;;;;;;;;;;;;;5.30;53.59;100318.66;5000422;28;20322;-82
2021/01/30 10:03:54;;;;;;;;;;;;;;;5.86;52.27;100320.25;5017275;28;20268;-83
2021/01/30 10:06:28;;;;;;;;;;;;;;;5.84;52.37;100316.75;5000387;28;19944;-83
2021/01/30 10:08:53;;;;;;;;;;;;;;;6.34;51.04;100314.91;4999981;28;19921;-83
2021/01/30 10:11:20;;;;;;;;;;;;;;;6.01;52.25;100320.66;5018550;28;20004;-82
2021/01/30 10:13:56;;;;;;;;;;;;;;;5.21;54.36;100324.31;5017971;28;20379;-83
2021/01/30 10:16:23;;;;;;;;;;;;;;;6.66;51.44;100321.72;5000575;28;19921;-82
2021/01/30 10:18:51;;;;;;;;;;;;;;;6.34;51.38;100323.88;4995847;28;19917;-84
2021/01/30 10:21:36;;;;;;;;;;;;;;;6.39;51.84;100318.31;4980689;28;19922;-83
2021/01/30 10:24:13;;;;;;;;;;;;;;;6.09;52.19;100320.38;4998340;28;19925;-84
2021/01/30 10:26:39;;;;;;;;;;;;;;;7.02;49.50;100314.91;4999418;28;19925;-83
2021/01/30 10:29:05;;;;;;;;;;;;;;;6.65;50.52;100319.97;4997259;28;19918;-83
2021/01/30 10:31:36;;;;;;;;;;;;;;;6.46;51.98;100317.16;4980950;28;19918;-82
2021/01/30 10:34:04;;;;;;;;;;;;;;;5.53;52.91;100326.84;4998950;28;19918;-83
2021/01/30 10:36:32;;;;;;;;;;;;;;;6.34;50.56;100326.56;4998235;28;19929;-84
2021/01/30 10:39:00;;;;;;;;;;;;;;;5.82;51.92;100325.78;4982225;28;20008;-84
2021/01/30 10:41:26;;;;;;;;;;;;;;;6.17;51.28;100313.75;4998344;28;19921;-81
2021/01/30 10:43:56;;;;;;;;;;;;;;;5.92;51.70;100318.25;4981992;28;19922;-84
2021/01/30 10:46:29;;;;;;;;;;;;;;;5.94;52.36;100322.63;4997874;28;19921;-85
2021/01/30 10:49:01;;;;;;;;;;;;;;;5.74;53.06;100309.09;4998715;28;19925;-84
2021/01/30 10:51:28;;;;;;;;;;;;;;;6.28;50.66;100317.84;5010197;28;19921;-84
2021/01/30 10:54:12;;;;;;;;;;;;;;;6.28;49.90;100313.38;4996435;28;19971;-85
2021/01/30 10:56:37;;;;;;;;;;;;;;;7.10;48.78;100310.97;5015141;28;19922;-83
2021/01/30 10:59:19;;;;;;;;;;;;;;;7.33;48.39;100309.09;4999095;28;19940;-81
2021/01/30 11:01:44;;;;;;;;;;;;;;;5.91;52.27;100303.97;4998731;28;19922;-83
2021/01/30 11:04:09;;;;;;;;;;;;;;;5.96;52.37;100302.00;4999039;28;19924;-86
2021/01/30 11:06:38;;;;;;;;;;;;;;;6.44;50.25;100300.19;4997852;28;19964;-83
2021/01/30 11:09:24;;;;;;;;;;;;;;;7.41;48.55;100289.94;4998159;28;19921;-82
2021/01/30 11:11:50;;;;;;;;;;;;;;;6.51;50.36;100296.34;5022855;28;19925;-84
2021/01/30 11:14:16;;;;;;;;;;;;;;;6.46;50.89;100294.75;4997143;28;19972;-81
2021/01/30 11:16:41;;;;;;;;;;;;;;;5.52;52.00;100296.44;5014350;28;19921;-82
2021/01/30 11:19:24;;;;;;;;;;;;;;;7.07;49.31;100289.56;5016238;28;19921;-83
2021/01/30 11:22:23;;;;;;;;;;;;;;;6.74;49.93;100291.84;4998811;28;19921;-83
2021/01/30 11:25:09;;;;;;;;;;;;;;;7.79;47.39;100298.16;4968641;28;19937;-86
2021/01/30 11:27:34;;;;;;;;;;;;;;;6.46;51.33;100303.72;4995727;28;19961;-83
2021/01/30 11:30:12;;;;;;;;;;;;;;;6.69;51.55;100294.72;5020362;28;20259;-86
2021/01/30 11:32:37;;;;;;;;;;;;;;;6.86;49.70;100290.47;5015499;28;20410;-83
2021/01/30 11:35:03;;;;;;;;;;;;;;;6.35;51.50;100289.81;5015112;28;19927;-80
2021/01/30 11:37:28;;;;;;;;;;;;;;;6.57;50.90;100281.78;5016220;28;19952;-83
2021/01/30 11:39:54;;;;;;;;;;;;;;;7.04;48.97;100284.31;4998986;28;19925;-83
2021/01/30 11:42:20;;;;;;;;;;;;;;;6.24;51.55;100276.81;4998461;28;19921;-80
2021/01/30 11:44:46;;;;;;;;;;;;;;;7.28;47.80;100260.88;5016216;28;19932;-80
2021/01/30 11:47:11;;;;;;;;;;;;;;;6.51;49.57;100261.41;4997597;28;19917;-80
2021/01/30 11:49:37;;;;;;;;;;;;;;;7.18;47.70;100266.72;5015912;28;19917;-84
2021/01/30 11:52:02;;;;;;;;;;;;;;;6.66;49.08;100257.22;5017331;28;19925;-82
2021/01/30 11:54:27;;;;;;;;;;;;;;;6.94;48.76;100265.94;5015849;28;19918;-87
2021/01/30 11:56:52;;;;;;;;;;;;;;;6.43;50.16;100255.47;5017217;28;20350;-85
2021/01/30 11:59:18;;;;;;;;;;;;;;;6.24;51.53;100249.94;4999221;28;20379;-85
2021/01/30 12:01:43;;;;;;;;;;;;;;;6.69;49.39;100245.47;4999061;28;20000;-81
2021/01/30 12:04:13;;;;;;;;;;;;;;;6.23;50.35;100234.75;5000938;28;20332;-84
2021/01/30 12:06:40;;;;;;;;;;;;;;;5.70;51.06;100222.44;5002771;28;20008;-84
2021/01/30 12:09:05;;;;;;;;;;;;;;;7.40;48.63;100231.69;5004801;28;20333;-86
2021/01/30 12:11:30;;;;;;;;;;;;;;;7.22;49.08;100218.09;5003808;28;19975;-84
2021/01/30 12:14:02;;;;;;;;;;;;;;;6.67;50.46;100224.03;5021586;28;19926;-85
2021/01/30 12:16:27;;;;;;;;;;;;;;;5.74;51.59;100220.53;5003772;28;20076;-85
2021/01/30 12:18:53;;;;;;;;;;;;;;;6.90;49.02;100227.56;5003393;28;19917;-81
2021/01/30 12:21:18;;;;;;;;;;;;;;;6.45;50.33;100220.47;5022772;28;19918;-84
2021/01/30 12:23:43;;;;;;;;;;;;;;;6.55;49.72;100216.44;5001648;28;20008;-81
2021/01/30 12:26:09;;;;;;;;;;;;;;;7.03;48.96;100209.94;5020868;28;19932;-83
2021/01/30 12:28:35;;;;;;;;;;;;;;;6.52;49.82;100211.22;5001806;28;20496;-79
2021/01/30 12:31:01;;;;;;;;;;;;;;;6.18;51.19;100209.91;5002134;28;19917;-81
2021/01/30 12:33:27;;;;;;;;;;;;;;;5.93;50.66;100218.00;5002708;28;19963;-84
2021/01/30 12:35:53;;;;;;;;;;;;;;;5.66;52.08;100224.38;5003303;28;19917;-83
2021/01/30 12:38:18;;;;;;;;;;;;;;;6.55;50.06;100216.44;5002902;28;19925;-84
2021/01/30 12:40:51;;;;;;;;;;;;;;;6.83;50.41;100220.69;5020405;28;19917;-84
2021/01/30 12:43:18;;;;;;;;;;;;;;;6.51;50.79;100225.59;5002823;28;19914;-84
2021/01/30 12:45:44;;;;;;;;;;;;;;;6.23;50.87;100223.13;5020645;28;20417;-81
2021/01/30 12:48:09;;;;;;;;;;;;;;;6.47;50.68;100221.28;5020343;28;19921;-82
2021/01/30 12:50:34;;;;;;;;;;;;;;;6.57;50.97;100220.84;5020603;28;19924;-81
2021/01/30 12:53:00;;;;;;;;;;;;;;;7.19;49.05;100203.91;5003166;28;19972;-82
2021/01/30 12:55:25;;;;;;;;;;;;;;;6.85;50.57;100210.75;5002691;28;19917;-83
2021/01/30 12:57:50;;;;;;;;;;;;;;;7.04;48.95;100205.47;5002071;28;20031;-81
2021/01/30 13:00:18;;;;;;;;;;;;;;;7.21;48.78;100204.72;5002423;28;19917;-84
2021/01/30 13:02:43;;;;;;;;;;;;;;;7.23;49.03;100203.72;5021052;28;19925;-85
2021/01/30 13:05:09;;;;;;;;;;;;;;;6.69;50.46;100208.72;5020455;28;20315;-85
2021/01/30 13:07:35;;;;;;;;;;;;;;;7.10;48.12;100192.59;5003232;28;19917;-84
2021/01/30 13:10:00;;;;;;;;;;;;;;;7.56;46.87;100200.47;5003365;28;19918;-86